Time;durP1;ratioP1;P1;durP2;ratioP2;P2;SDS_P1;SDS_P2;PMS_P1;PMS_P2;Temp;Humidity;BMP_temperature;BMP_pressure;BME280_temperature;BME280_humidity;BME280_pressure;Samples;Min_cycle;Max_cycle;Signal;HPM_P1;HPM_P2
2021/04/24 00:01:24;;;;;;;10.67;7.00;;;8.20;94.20;;;;;;5055046;28;20266;-71
2021/04/24 00:03:50;;;;;;;7.87;5.83;;;8.20;94.10;;;;;;5057412;28;20470;-72
2021/04/24 00:06:15;;;;;;;10.20;6.97;;;8.10;93.70;;;;;;5055902;28;20417;-71
2021/04/24 00:08:41;;;;;;;13.83;7.07;;;8.00;93.60;;;;;;5056115;28;20194;-72
2021/04/24 00:11:07;;;;;;;10.67;6.80;;;8.00;93.70;;;;;;5055690;28;20198;-71
2021/04/24 00:13:33;;;;;;;7.87;6.43;;;8.10;93.80;;;;;;5056832;28;20183;-72
2021/04/24 00:15:58;;;;;;;8.37;5.93;;;8.10;93.60;;;;;;5055545;28;20158;-72
2021/04/24 00:18:24;;;;;;;11.60;6.33;;;8.00;93.60;;;;;;5055341;28;20458;-72
2021/04/24 00:20:49;;;;;;;13.20;6.60;;;8.00;93.60;;;;;;5055617;28;20171;-71
2021/04/24 00:23:16;;;;;;;10.60;5.67;;;7.90;93.70;;;;;;5056723;28;20189;-72
2021/04/24 00:25:41;;;;;;;10.20;6.20;;;7.90;93.80;;;;;;5055582;28;20254;-72
2021/04/24 00:28:10;;;;;;;6.93;6.13;;;7.90;93.80;;;;;;5055590;28;20795;-71
2021/04/24 00:30:36;;;;;;;7.03;5.57;;;7.80;94.00;;;;;;5055532;28;20209;-72
2021/04/24 00:33:01;;;;;;;7.37;6.10;;;7.70;94.10;;;;;;5055189;28;20416;-72
2021/04/24 00:35:27;;;;;;;10.40;6.20;;;7.70;94.20;;;;;;5072568;28;20175;-71
2021/04/24 00:37:52;;;;;;;10.37;6.93;;;7.70;94.30;;;;;;5075471;28;20166;-70
2021/04/24 00:40:19;;;;;;;13.57;6.43;;;7.60;94.40;;;;;;5075174;28;20189;-71
2021/04/24 00:42:47;;;;;;;10.13;6.33;;;7.50;94.50;;;;;;5075612;28;20178;-72
2021/04/24 00:45:14;;;;;;;8.77;6.30;;;7.50;94.60;;;;;;5073656;28;20424;-72
2021/04/24 00:47:40;;;;;;;12.07;6.17;;;7.50;94.70;;;;;;5073869;28;20417;-72
2021/04/24 00:50:09;;;;;;;11.70;7.00;;;7.50;94.80;;;;;;5074822;28;20441;-72
2021/04/24 00:52:34;;;;;;;8.67;6.60;;;7.50;94.80;;;;;;5075338;28;20453;-72
2021/04/24 00:55:00;;;;;;;8.93;5.97;;;7.50;94.70;;;;;;5073599;28;20424;-72
2021/04/24 00:57:28;;;;;;;13.83;5.70;;;7.50;94.80;;;;;;5073596;28;20250;-72
2021/04/24 00:59:54;;;;;;;7.93;6.20;;;7.50;94.70;;;;;;5074398;28;20197;-72
2021/04/24 01:02:20;;;;;;;9.50;6.20;;;7.40;94.70;;;;;;5075190;28;20884;-72
2021/04/24 01:04:45;;;;;;;7.40;6.13;;;7.40;94.90;;;;;;5073657;28;20423;-72
2021/04/24 01:07:11;;;;;;;13.23;6.13;;;7.30;94.90;;;;;;5072742;28;20884;-72
2021/04/24 01:09:37;;;;;;;8.07;6.00;;;7.20;95.20;;;;;;5074579;28;20197;-73
2021/04/24 01:12:03;;;;;;;7.60;5.73;;;7.10;95.50;;;;;;5073447;28;20448;-72
2021/04/24 01:14:28;;;;;;;8.20;5.03;;;7.10;95.70;;;;;;5074786;28;20219;-72
2021/04/24 01:16:55;;;;;;;7.73;5.90;;;7.10;95.70;;;;;;5072906;28;20506;-72
2021/04/24 01:19:23;;;;;;;7.67;5.60;;;7.00;95.70;;;;;;5074818;28;20190;-72
2021/04/24 01:21:50;;;;;;;7.60;6.13;;;7.00;95.70;;;;;;5074178;28;20408;-72
2021/04/24 01:24:16;;;;;;;8.20;5.87;;;6.90;95.80;;;;;;5074270;28;20891;-72
2021/04/24 01:26:42;;;;;;;7.90;5.10;;;7.00;96.00;;;;;;5067258;28;20425;-72
2021/04/24 01:29:07;;;;;;;7.70;5.10;;;7.00;95.90;;;;;;5054959;28;20451;-72
2021/04/24 01:31:38;;;;;;;10.97;6.77;;;7.00;95.90;;;;;;5054623;28;20205;-72
2021/04/24 01:34:06;;;;;;;8.83;5.63;;;6.90;95.90;;;;;;5068948;28;20173;-72
2021/04/24 01:36:32;;;;;;;7.10;5.13;;;7.00;95.90;;;;;;5074158;28;20404;-72
2021/04/24 01:38:58;;;;;;;9.43;5.20;;;7.00;95.70;;;;;;5074048;28;20454;-72
2021/04/24 01:41:24;;;;;;;8.90;4.63;;;7.00;95.50;;;;;;5074339;28;20397;-72
2021/04/24 01:43:55;;;;;;;10.57;5.20;;;7.00;95.80;;;;;;5083410;28;20560;-72
2021/04/24 01:46:21;;;;;;;4.63;4.00;;;6.90;95.60;;;;;;5082782;28;20443;-72
2021/04/24 01:48:47;;;;;;;10.63;4.70;;;6.80;95.90;;;;;;5078074;28;20534;-72
2021/04/24 01:51:13;;;;;;;7.23;4.53;;;6.80;95.80;;;;;;5074189;28;20933;-72
2021/04/24 01:53:39;;;;;;;8.87;5.20;;;6.80;95.70;;;;;;5072382;28;20465;-72
2021/04/24 01:56:06;;;;;;;7.57;4.47;;;6.70;95.90;;;;;;5075185;28;20412;-72
2021/04/24 01:58:32;;;;;;;4.83;3.90;;;6.70;95.90;;;;;;5079109;28;20970;-72
2021/04/24 02:01:01;;;;;;;8.23;4.23;;;6.70;95.80;;;;;;5074554;28;20414;-72
2021/04/24 02:03:28;;;;;;;6.47;4.57;;;6.70;96.00;;;;;;5074050;28;20765;-72
2021/04/24 02:05:54;;;;;;;5.73;3.80;;;6.70;96.00;;;;;;5072562;28;20432;-72
2021/04/24 02:08:22;;;;;;;6.00;3.90;;;6.70;95.90;;;;;;5073431;28;20404;-72
2021/04/24 02:10:52;;;;;;;5.00;4.07;;;6.70;96.10;;;;;;5073638;28;20206;-72
2021/04/24 02:13:20;;;;;;;7.00;3.30;;;6.70;96.10;;;;;;5073884;28;20412;-72
2021/04/24 02:15:46;;;;;;;6.07;3.63;;;6.60;96.00;;;;;;5072057;28;20443;-73
2021/04/24 02:18:13;;;;;;;5.53;4.17;;;6.50;96.00;;;;;;5073302;28;20460;-72
2021/04/24 02:20:40;;;;;;;4.50;3.40;;;6.60;96.10;;;;;;5073981;28;20436;-72
2021/04/24 02:23:07;;;;;;;8.20;3.93;;;6.60;95.90;;;;;;5073490;28;20495;-72
2021/04/24 02:25:33;;;;;;;3.90;3.10;;;6.70;95.90;;;;;;5072185;28;20412;-72
2021/04/24 02:27:59;;;;;;;6.90;4.13;;;6.70;95.70;;;;;;5073513;28;20410;-72
2021/04/24 02:30:25;;;;;;;5.23;3.40;;;6.70;95.80;;;;;;5073317;28;20495;-72
2021/04/24 02:32:51;;;;;;;5.40;3.60;;;6.60;95.90;;;;;;5073385;28;20481;-72
2021/04/24 02:35:22;;;;;;;5.33;3.53;;;6.50;96.10;;;;;;5073591;28;20478;-72
2021/04/24 02:37:48;;;;;;;6.83;5.03;;;6.60;96.10;;;;;;5071984;28;20162;-71
2021/04/24 02:40:17;;;;;;;5.53;3.50;;;6.60;96.10;;;;;;5073301;28;20461;-71
2021/04/24 02:42:44;;;;;;;6.70;4.07;;;6.70;96.20;;;;;;5073281;28;20786;-71
2021/04/24 02:45:11;;;;;;;5.67;3.70;;;6.70;96.20;;;;;;5073247;28;20412;-71
2021/04/24 02:47:37;;;;;;;5.70;3.77;;;6.70;96.10;;;;;;5071624;28;20511;-71
2021/04/24 02:50:05;;;;;;;6.53;4.17;;;6.80;96.00;;;;;;5073560;28;20890;-71
2021/04/24 02:52:31;;;;;;;6.40;3.50;;;6.80;95.90;;;;;;5072296;28;20205;-71
2021/04/24 02:54:56;;;;;;;4.63;3.20;;;6.80;95.90;;;;;;5073026;28;20503;-71
2021/04/24 02:57:22;;;;;;;4.63;3.37;;;6.90;95.90;;;;;;5072680;28;20169;-72
2021/04/24 02:59:48;;;;;;;5.60;3.53;;;6.90;95.80;;;;;;5053255;28;20194;-71
2021/04/24 03:02:17;;;;;;;6.80;3.90;;;6.90;95.70;;;;;;5053959;28;20591;-72
2021/04/24 03:04:44;;;;;;;6.97;3.77;;;6.90;95.80;;;;;;5053099;28;20420;-72
2021/04/24 03:07:10;;;;;;;5.90;3.77;;;6.80;96.10;;;;;;5052945;28;20413;-72
2021/04/24 03:09:36;;;;;;;5.97;4.10;;;6.80;96.20;;;;;;5054186;28;20448;-71
2021/04/24 03:12:02;;;;;;;4.87;3.53;;;6.80;96.20;;;;;;5053497;28;20455;-71
2021/04/24 03:14:28;;;;;;;9.33;4.70;;;6.90;96.10;;;;;;5052943;28;20175;-71
2021/04/24 03:16:54;;;;;;;4.47;3.63;;;6.80;96.00;;;;;;5053244;28;20451;-72
2021/04/24 03:19:19;;;;;;;5.20;3.40;;;6.80;96.00;;;;;;5054189;28;20198;-71
2021/04/24 03:21:45;;;;;;;6.00;4.27;;;6.80;96.20;;;;;;5052682;28;20643;-71
2021/04/24 03:24:11;;;;;;;7.40;4.03;;;6.60;96.50;;;;;;5054003;28;20200;-71
2021/04/24 03:26:36;;;;;;;7.57;4.40;;;6.50;96.70;;;;;;5071547;28;20270;-71
2021/04/24 03:29:03;;;;;;;4.50;4.10;;;6.40;97.00;;;;;;5072435;28;20214;-72
2021/04/24 03:31:29;;;;;;;7.33;4.50;;;6.30;97.30;;;;;;5071032;28;20562;-71
2021/04/24 03:33:55;;;;;;;6.60;4.57;;;6.20;97.60;;;;;;5073424;28;20419;-71
2021/04/24 03:36:20;;;;;;;6.97;5.00;;;6.20;97.80;;;;;;5076722;28;20166;-71
2021/04/24 03:38:46;;;;;;;7.23;5.63;;;6.10;98.00;;;;;;5076376;28;20220;-71
2021/04/24 03:41:12;;;;;;;12.00;4.90;;;6.00;98.20;;;;;;5074650;28;20197;-71
2021/04/24 03:43:37;;;;;;;8.03;6.73;;;6.10;98.20;;;;;;5074782;28;20190;-72
2021/04/24 03:46:03;;;;;;;9.30;6.67;;;6.00;98.00;;;;;;5076446;28;20565;-72
2021/04/24 03:48:29;;;;;;;9.10;6.20;;;6.00;98.30;;;;;;5076271;28;20630;-71
2021/04/24 03:50:55;;;;;;;11.30;5.90;;;6.00;98.40;;;;;;5074050;28;20424;-71
2021/04/24 03:53:20;;;;;;;7.00;4.97;;;5.90;98.50;;;;;;5075978;28;20260;-71
2021/04/24 03:55:46;;;;;;;7.57;4.80;;;5.90;98.60;;;;;;5076932;28;20267;-71
2021/04/24 03:58:12;;;;;;;9.00;5.53;;;6.00;98.50;;;;;;5075949;28;20419;-71
2021/04/24 04:00:38;;;;;;;6.57;4.80;;;6.10;98.40;;;;;;5075955;28;20424;-71
2021/04/24 04:03:06;;;;;;;6.77;4.87;;;6.10;98.50;;;;;;5074248;28;20423;-72
2021/04/24 04:05:36;;;;;;;11.40;5.40;;;6.20;98.50;;;;;;5076378;28;20235;-72
2021/04/24 04:08:04;;;;;;;6.60;4.10;;;6.30;98.20;;;;;;5074488;28;20407;-71
2021/04/24 04:10:30;;;;;;;7.50;4.93;;;6.30;98.20;;;;;;5076729;28;20939;-71
2021/04/24 04:12:56;;;;;;;8.27;5.07;;;6.30;98.20;;;;;;5074267;28;20434;-71
2021/04/24 04:15:24;;;;;;;7.73;4.73;;;6.20;98.30;;;;;;5076016;28;20435;-71
2021/04/24 04:17:53;;;;;;;8.37;5.20;;;6.30;98.40;;;;;;5075717;28;20442;-71
2021/04/24 04:20:19;;;;;;;8.47;5.23;;;6.20;98.40;;;;;;5075477;28;20500;-71
2021/04/24 04:22:44;;;;;;;7.73;5.30;;;6.10;98.50;;;;;;5074026;28;20408;-71
2021/04/24 04:25:11;;;;;;;10.87;6.20;;;6.10;98.70;;;;;;5074611;28;20174;-72
2021/04/24 04:27:36;;;;;;;10.30;5.27;;;6.10;98.70;;;;;;5075487;28;20627;-71
2021/04/24 04:30:05;;;;;;;7.30;4.70;;;6.10;98.70;;;;;;5074237;28;20450;-71
2021/04/24 04:32:31;;;;;;;7.93;5.47;;;6.10;98.70;;;;;;5075509;28;20225;-71
2021/04/24 04:34:56;;;;;;;8.50;5.57;;;6.00;98.70;;;;;;5073582;28;20795;-71
2021/04/24 04:37:22;;;;;;;7.33;5.67;;;6.00;98.90;;;;;;5075679;28;20657;-72
2021/04/24 04:39:47;;;;;;;10.97;5.30;;;6.00;99.10;;;;;;5075445;28;20205;-71
2021/04/24 04:42:13;;;;;;;7.53;4.50;;;5.90;99.30;;;;;;5076226;28;20235;-71
2021/04/24 04:44:38;;;;;;;7.20;5.10;;;5.90;99.30;;;;;;5074446;28;20178;-71
2021/04/24 04:47:04;;;;;;;9.40;5.70;;;6.00;99.40;;;;;;5076433;28;20280;-71
2021/04/24 04:49:30;;;;;;;6.73;5.20;;;6.00;99.40;;;;;;5076770;28;20550;-71
2021/04/24 04:51:55;;;;;;;9.13;5.23;;;6.00;99.40;;;;;;5076345;28;20447;-71
2021/04/24 04:54:21;;;;;;;10.23;5.13;;;6.10;99.30;;;;;;5076873;28;20173;-71
2021/04/24 04:56:46;;;;;;;9.03;5.57;;;6.10;99.20;;;;;;5073111;28;20182;-71
2021/04/24 04:59:12;;;;;;;9.30;5.50;;;6.20;99.10;;;;;;5076397;28;20193;-71
2021/04/24 05:01:37;;;;;;;12.40;6.00;;;6.20;99.00;;;;;;5076983;28;20561;-71
2021/04/24 05:04:03;;;;;;;6.10;4.90;;;6.30;98.90;;;;;;5077259;28;20259;-71
2021/04/24 05:06:29;;;;;;;13.83;6.17;;;6.20;98.70;;;;;;5074921;28;20288;-71
2021/04/24 05:08:54;;;;;;;7.80;4.80;;;6.30;98.70;;;;;;5076141;28;20622;-72
2021/04/24 05:11:20;;;;;;;6.03;4.93;;;6.40;98.40;;;;;;5075317;28;20197;-70
2021/04/24 05:13:45;;;;;;;7.70;5.27;;;6.40;98.10;;;;;;5077156;28;20174;-71
2021/04/24 05:16:11;;;;;;;7.87;5.20;;;6.50;98.10;;;;;;5076533;28;20190;-70
2021/04/24 05:18:36;;;;;;;6.30;4.90;;;6.40;98.00;;;;;;5062663;28;20198;-71
2021/04/24 05:21:03;;;;;;;8.40;6.40;;;6.50;98.00;;;;;;5054933;28;20170;-70
2021/04/24 05:23:28;;;;;;;10.50;5.30;;;6.60;97.90;;;;;;5055437;28;20534;-71
2021/04/24 05:25:54;;;;;;;9.10;6.07;;;6.70;97.70;;;;;;5054613;28;20461;-71
2021/04/24 05:28:19;;;;;;;7.23;4.60;;;6.80;97.40;;;;;;5055258;28;20674;-71
2021/04/24 05:30:45;;;;;;;10.90;5.37;;;6.80;97.20;;;;;;5054659;28;20193;-72
2021/04/24 05:33:11;;;;;;;10.53;5.50;;;6.90;97.10;;;;;;5061749;28;20185;-72
2021/04/24 05:35:36;;;;;;;8.47;5.30;;;7.00;97.10;;;;;;5074442;28;20215;-72
2021/04/24 05:38:02;;;;;;;6.63;4.87;;;7.00;96.90;;;;;;5073892;28;20814;-72
2021/04/24 05:40:28;;;;;;;8.90;5.13;;;7.10;96.90;;;;;;5073894;28;20256;-71
2021/04/24 05:42:53;;;;;;;9.03;4.60;;;7.10;96.60;;;;;;5072391;28;20195;-71
2021/04/24 05:45:19;;;;;;;7.50;5.27;;;7.10;96.60;;;;;;5054217;28;20181;-71
2021/04/24 05:47:47;;;;;;;5.70;4.43;;;7.00;96.70;;;;;;5053889;28;20207;-71
2021/04/24 05:50:14;;;;;;;6.77;4.93;;;7.10;96.70;;;;;;5053976;28;20563;-72
2021/04/24 05:52:40;;;;;;;6.10;4.80;;;7.00;96.90;;;;;;5054217;28;20448;-72
2021/04/24 05:55:07;;;;;;;8.83;5.37;;;7.00;96.90;;;;;;5054929;28;20456;-70
2021/04/24 05:57:33;;;;;;;9.40;4.83;;;7.10;96.80;;;;;;5053116;28;20409;-72
2021/04/24 05:59:59;;;;;;;8.03;5.57;;;7.20;96.70;;;;;;5053677;28;20424;-71
2021/04/24 06:02:25;;;;;;;6.83;5.50;;;7.20;97.00;;;;;;5053644;28;20418;-72
2021/04/24 06:04:50;;;;;;;7.80;4.60;;;7.20;96.50;;;;;;5054888;28;20178;-72
2021/04/24 06:07:16;;;;;;;7.27;5.70;;;7.30;96.50;;;;;;5053452;28;20194;-72
2021/04/24 06:09:41;;;;;;;9.90;6.37;;;7.40;96.40;;;;;;5053460;28;20205;-73
2021/04/24 06:12:07;;;;;;;8.93;5.40;;;7.40;96.40;;;;;;5053282;28;20248;-72
2021/04/24 06:14:33;;;;;;;8.70;5.30;;;7.40;96.20;;;;;;5053598;28;20172;-72
2021/04/24 06:16:59;;;;;;;12.00;4.90;;;7.40;96.20;;;;;;5054561;28;20433;-72
2021/04/24 06:19:26;;;;;;;5.00;4.27;;;7.40;96.20;;;;;;5052992;28;20292;-72
2021/04/24 06:21:52;;;;;;;9.50;5.97;;;7.50;96.20;;;;;;5053840;28;20213;-72
2021/04/24 06:24:18;;;;;;;9.53;5.30;;;7.40;96.10;;;;;;5052494;28;20455;-72
2021/04/24 06:26:43;;;;;;;7.70;4.73;;;7.50;96.30;;;;;;5051747;28;20182;-72
2021/04/24 06:29:09;;;;;;;8.83;4.67;;;7.50;96.40;;;;;;5041827;28;20227;-72
2021/04/24 06:31:34;;;;;;;11.00;6.63;;;7.60;96.30;;;;;;5032925;28;20206;-72
2021/04/24 06:34:00;;;;;;;9.80;6.60;;;7.60;96.10;;;;;;5038307;28;20186;-72
2021/04/24 06:36:26;;;;;;;8.80;6.00;;;7.60;96.20;;;;;;5047001;28;20177;-72
2021/04/24 06:38:52;;;;;;;7.43;5.77;;;7.60;96.30;;;;;;5050291;28;20721;-72
2021/04/24 06:41:17;;;;;;;8.40;5.73;;;7.60;96.50;;;;;;5043684;28;20513;-72
2021/04/24 06:43:43;;;;;;;8.17;6.40;;;7.60;96.60;;;;;;5037814;28;20941;-72
2021/04/24 06:46:08;;;;;;;10.70;5.47;;;7.70;96.70;;;;;;5041374;28;20190;-72
2021/04/24 06:48:34;;;;;;;8.23;6.07;;;7.70;96.80;;;;;;5067490;28;20306;-72
2021/04/24 06:51:00;;;;;;;8.17;6.10;;;7.70;96.80;;;;;;5059210;28;20258;-73
2021/04/24 06:53:26;;;;;;;10.37;6.30;;;7.80;97.00;;;;;;5040956;28;20194;-72
2021/04/24 06:55:54;;;;;;;10.50;6.03;;;7.80;96.80;;;;;;5053343;28;20403;-72
2021/04/24 06:58:19;;;;;;;9.37;5.40;;;7.90;96.90;;;;;;5053913;28;20518;-72
2021/04/24 07:00:45;;;;;;;8.57;5.43;;;8.00;96.90;;;;;;5053226;28;20397;-72
2021/04/24 07:03:10;;;;;;;11.00;5.70;;;8.10;96.90;;;;;;5053580;28;20167;-72
2021/04/24 07:05:36;;;;;;;7.30;5.47;;;8.10;96.70;;;;;;5053227;28;20176;-71
2021/04/24 07:08:02;;;;;;;8.60;6.00;;;8.20;96.70;;;;;;5044954;28;20716;-71
2021/04/24 07:10:28;;;;;;;9.90;6.00;;;8.20;96.80;;;;;;5054894;28;20208;-71
2021/04/24 07:12:53;;;;;;;10.13;5.90;;;8.20;97.00;;;;;;5045835;28;20775;-71
2021/04/24 07:15:19;;;;;;;7.33;5.30;;;8.20;97.00;;;;;;5037008;28;20173;-71
2021/04/24 07:17:44;;;;;;;9.27;5.20;;;8.30;97.30;;;;;;5036683;28;20182;-71
2021/04/24 07:20:10;;;;;;;7.70;4.93;;;8.40;97.40;;;;;;5051039;28;20206;-72
2021/04/24 07:22:37;;;;;;;9.10;5.60;;;8.40;97.30;;;;;;5056662;28;20581;-71
2021/04/24 07:25:04;;;;;;;7.17;5.40;;;8.40;97.20;;;;;;5057014;28;20848;-71
2021/04/24 07:27:29;;;;;;;9.70;6.40;;;8.50;97.10;;;;;;5056659;28;20414;-71
2021/04/24 07:29:55;;;;;;;11.57;6.33;;;8.70;97.00;;;;;;5057666;28;20948;-72
2021/04/24 07:32:21;;;;;;;7.00;5.40;;;8.80;96.80;;;;;;5056433;28;20204;-72
2021/04/24 07:34:46;;;;;;;7.23;5.80;;;8.80;96.40;;;;;;5044316;28;20556;-71
2021/04/24 07:37:12;;;;;;;8.50;5.60;;;8.80;96.20;;;;;;5057076;28;20488;-71
2021/04/24 07:39:37;;;;;;;10.70;7.73;;;8.90;96.10;;;;;;5056797;28;20190;-71
2021/04/24 07:42:03;;;;;;;8.73;6.00;;;9.10;96.50;;;;;;5057559;28;20228;-71
2021/04/24 07:44:29;;;;;;;9.17;6.57;;;9.20;95.80;;;;;;5056464;28;20265;-71
2021/04/24 07:46:54;;;;;;;8.17;5.43;;;9.30;95.70;;;;;;5056095;28;20414;-72
2021/04/24 07:49:20;;;;;;;8.00;5.20;;;9.10;95.60;;;;;;5056373;28;20223;-72
2021/04/24 07:51:46;;;;;;;6.40;5.63;;;9.00;95.60;;;;;;5057275;28;20729;-72
2021/04/24 07:54:13;;;;;;;6.50;4.80;;;9.00;95.60;;;;;;5056487;28;20847;-72
2021/04/24 07:56:40;;;;;;;7.80;5.37;;;9.10;95.40;;;;;;5055825;28;20430;-72
2021/04/24 07:59:06;;;;;;;6.37;5.40;;;9.30;95.20;;;;;;5048221;28;20444;-72
2021/04/24 08:01:31;;;;;;;7.77;5.23;;;9.30;94.70;;;;;;5041693;28;20501;-73
2021/04/24 08:03:57;;;;;;;7.20;5.10;;;9.20;94.70;;;;;;5050873;28;20758;-72
2021/04/24 08:06:22;;;;;;;8.33;6.30;;;9.50;94.80;;;;;;5036164;28;20198;-72
2021/04/24 08:08:50;;;;;;;6.60;6.00;;;9.70;94.60;;;;;;5047853;28;20205;-71
2021/04/24 08:11:16;;;;;;;29.87;21.77;;;9.70;93.90;;;;;;5043991;28;20208;-70
2021/04/24 08:13:42;;;;;;;36.50;27.47;;;9.90;94.10;;;;;;5056021;28;20498;-73
2021/04/24 08:16:07;;;;;;;21.60;19.20;;;10.10;94.70;;;;;;5050181;28;20804;-71
2021/04/24 08:18:33;;;;;;;11.37;9.37;;;10.30;94.20;;;;;;5044633;28;20175;-71
2021/04/24 08:20:58;;;;;;;16.10;14.43;;;10.30;93.40;;;;;;5034599;28;20179;-71
2021/04/24 08:23:24;;;;;;;15.63;14.13;;;10.40;93.80;;;;;;5045482;28;20220;-71
2021/04/24 08:25:49;;;;;;;8.30;5.43;;;10.50;94.60;;;;;;5064041;28;20202;-71
2021/04/24 08:28:15;;;;;;;11.13;7.83;;;10.40;92.50;;;;;;5056098;28;20162;-71
2021/04/24 08:30:41;;;;;;;9.97;6.00;;;9.80;93.30;;;;;;5055572;28;20533;-70
2021/04/24 08:33:08;;;;;;;10.03;7.43;;;9.50;93.60;;;;;;5074642;28;20275;-71
2021/04/24 08:35:33;;;;;;;6.87;6.27;;;9.50;94.70;;;;;;5074162;28;20553;-71
2021/04/24 08:37:59;;;;;;;9.83;8.17;;;9.60;94.90;;;;;;5089217;28;20415;-71
2021/04/24 08:40:25;;;;;;;8.63;6.57;;;9.90;95.40;;;;;;5088855;28;20618;-71
2021/04/24 08:42:51;;;;;;;10.37;8.07;;;10.10;94.20;;;;;;5081717;28;20239;-71
2021/04/24 08:45:18;;;;;;;8.20;6.20;;;10.20;94.20;;;;;;5063287;28;20273;-71
2021/04/24 08:47:47;;;;;;;7.30;6.60;;;10.30;93.20;;;;;;5055337;28;20491;-71
2021/04/24 08:50:18;;;;;;;8.33;6.20;;;10.30;93.10;;;;;;5054969;28;20490;-71
2021/04/24 08:52:44;;;;;;;6.87;5.30;;;10.30;93.00;;;;;;5055175;28;20447;-71
2021/04/24 08:55:15;;;;;;;5.90;5.30;;;10.30;92.80;;;;;;5060231;28;20454;-70
2021/04/24 08:57:41;;;;;;;8.63;6.23;;;10.20;93.00;;;;;;5075679;28;20899;-70
2021/04/24 09:00:08;;;;;;;7.30;5.10;;;10.10;92.80;;;;;;5075286;28;20411;-70
2021/04/24 09:02:34;;;;;;;7.93;5.23;;;10.10;92.40;;;;;;5074996;28;20196;-70
2021/04/24 09:05:00;;;;;;;7.23;5.10;;;10.20;93.30;;;;;;5075205;28;20426;-71
2021/04/24 09:07:26;;;;;;;8.63;5.10;;;10.40;92.40;;;;;;5073054;28;20177;-70
2021/04/24 09:09:59;;;;;;;7.57;4.20;;;10.30;92.40;;;;;;5074812;28;20218;-71
2021/04/24 09:12:38;;;;;;;5.50;3.90;;;10.50;92.60;;;;;;5075034;28;20796;-71
2021/04/24 09:15:19;;;;;;;11.50;4.80;;;10.80;92.30;;;;;;5074600;28;20778;-71
2021/04/24 09:18:00;;;;;;;4.90;4.00;;;10.90;91.50;;;;;;5072737;28;20428;-71
2021/04/24 09:20:28;;;;;;;6.17;4.73;;;10.80;90.80;;;;;;5074586;28;20491;-71
2021/04/24 09:23:00;;;;;;;8.73;5.27;;;10.60;90.70;;;;;;5074727;28;20863;-71
2021/04/24 09:25:48;;;;;;;6.30;3.93;;;10.60;90.60;;;;;;5074673;28;20404;-71
2021/04/24 09:28:31;;;;;;;6.43;4.30;;;10.70;90.70;;;;;;5072994;28;20431;-71
2021/04/24 09:31:08;;;;;;;7.17;4.63;;;10.90;90.50;;;;;;5074456;28;20931;-71
2021/04/24 09:33:35;;;;;;;5.20;4.20;;;11.00;90.20;;;;;;5073283;28;20427;-71
2021/04/24 09:36:02;;;;;;;8.03;5.17;;;10.90;90.30;;;;;;5076641;28;20427;-71
2021/04/24 09:38:30;;;;;;;6.65;4.80;;;10.90;90.30;;;;;;5075675;28;20410;-71
2021/04/24 09:41:13;;;;;;;7.40;5.00;;;11.10;90.20;;;;;;5076545;28;20173;-71
2021/04/24 09:43:46;;;;;;;6.70;4.60;;;11.00;90.10;;;;;;5070008;28;20427;-71
2021/04/24 09:46:13;;;;;;;5.23;4.20;;;11.10;89.70;;;;;;5056098;28;20404;-71
2021/04/24 09:48:38;;;;;;;6.90;4.33;;;10.90;90.00;;;;;;5056178;28;20425;-71
2021/04/24 09:51:19;;;;;;;8.00;5.33;;;11.00;90.40;;;;;;5056145;28;20471;-71
2021/04/24 09:53:56;;;;;;;6.77;4.67;;;11.10;90.00;;;;;;5075653;28;20252;-70
2021/04/24 09:56:25;;;;;;;6.03;5.10;;;11.20;89.70;;;;;;5076652;28;20407;-70
2021/04/24 09:58:51;;;;;;;6.20;4.47;;;11.40;90.10;;;;;;5076249;28;20424;-72
2021/04/24 10:01:23;;;;;;;6.07;4.53;;;11.60;89.90;;;;;;5075111;28;20442;-72
2021/04/24 10:03:50;;;;;;;7.70;4.77;;;11.80;88.90;;;;;;5071462;28;20784;-71
2021/04/24 10:06:34;;;;;;;9.10;4.00;;;12.00;87.50;;;;;;5074150;28;20419;-71
2021/04/24 10:09:21;;;;;;;8.97;6.00;;;12.20;87.10;;;;;;5045535;28;20489;-71
2021/04/24 10:11:53;;;;;;;6.80;5.03;;;12.10;85.90;;;;;;5041318;28;20463;-71
2021/04/24 10:14:29;;;;;;;7.10;4.27;;;11.90;86.70;;;;;;5045998;28;20536;-71
2021/04/24 10:16:56;;;;;;;6.80;5.30;;;11.90;87.50;;;;;;5048623;28;20429;-71
2021/04/24 10:19:23;;;;;;;5.87;4.83;;;12.10;86.70;;;;;;5053836;28;20436;-71
2021/04/24 10:21:49;;;;;;;8.27;4.83;;;12.20;86.20;;;;;;5046122;28;21264;-71
2021/04/24 10:24:14;;;;;;;5.23;4.67;;;12.30;84.70;;;;;;5048458;28;20965;-72
2021/04/24 10:26:44;;;;;;;6.13;4.63;;;12.10;83.50;;;;;;5048423;28;20174;-71
2021/04/24 10:29:10;;;;;;;4.63;4.23;;;12.00;83.90;;;;;;5058517;28;20690;-71
2021/04/24 10:31:36;;;;;;;6.10;4.60;;;11.60;83.80;;;;;;5050665;28;20464;-70
2021/04/24 10:34:05;;;;;;;5.07;4.43;;;11.50;84.80;;;;;;5050133;28;20467;-72
2021/04/24 10:36:36;;;;;;;7.23;4.40;;;11.50;85.40;;;;;;5064073;28;20486;-72
2021/04/24 10:39:06;;;;;;;7.77;4.50;;;11.50;85.00;;;;;;5053246;28;20429;-71
2021/04/24 10:41:36;;;;;;;5.27;4.60;;;11.60;85.50;;;;;;5064450;28;20453;-71
2021/04/24 10:44:11;;;;;;;7.17;4.77;;;11.80;86.10;;;;;;5060240;28;20416;-71
2021/04/24 10:46:54;;;;;;;4.87;3.80;;;11.90;85.90;;;;;;5068092;28;20825;-71
2021/04/24 10:49:30;;;;;;;7.40;4.07;;;12.10;84.00;;;;;;5040206;28;20473;-71
2021/04/24 10:52:07;;;;;;;5.70;4.33;;;12.20;82.10;;;;;;5062234;28;20491;-70
2021/04/24 10:54:36;;;;;;;5.13;4.40;;;12.20;81.40;;;;;;5065901;28;20486;-70
2021/04/24 10:57:22;;;;;;;6.70;3.80;;;12.30;81.50;;;;;;5053938;28;20428;-72
2021/04/24 10:59:54;;;;;;;4.70;3.97;;;12.10;81.70;;;;;;5059976;28;20447;-71
2021/04/24 11:02:20;;;;;;;4.90;4.40;;;11.90;82.00;;;;;;5061839;28;20412;-71
2021/04/24 11:04:50;;;;;;;4.73;3.43;;;11.80;82.20;;;;;;5066366;28;20556;-70
2021/04/24 11:07:17;;;;;;;9.30;4.50;;;11.60;82.50;;;;;;5048566;28;20220;-71
2021/04/24 11:09:44;;;;;;;7.03;5.23;;;11.70;83.30;;;;;;5061982;28;20444;-71
2021/04/24 11:12:12;;;;;;;5.83;4.20;;;12.00;83.50;;;;;;5050119;28;20605;-71
2021/04/24 11:14:40;;;;;;;3.90;3.60;;;12.10;82.00;;;;;;5048160;28;20794;-71
2021/04/24 11:17:11;;;;;;;7.73;4.47;;;12.20;81.50;;;;;;5062298;28;20497;-71
2021/04/24 11:19:45;;;;;;;5.50;4.60;;;12.20;81.70;;;;;;5051650;28;20438;-70
2021/04/24 11:22:36;;;;;;;7.63;4.20;;;12.30;82.00;;;;;;5056465;28;20428;-71
2021/04/24 11:25:17;;;;;;;6.50;4.20;;;12.40;81.40;;;;;;5057437;28;20506;-71
2021/04/24 11:28:09;;;;;;;3.60;3.30;;;12.50;80.30;;;;;;5064376;28;20451;-71
2021/04/24 11:30:55;;;;;;;4.43;3.57;;;12.40;78.50;;;;;;5065426;28;20545;-71
2021/04/24 11:33:45;;;;;;;5.60;4.30;;;12.40;77.40;;;;;;5040726;28;20465;-70
2021/04/24 11:36:26;;;;;;;6.90;4.00;;;12.40;78.10;;;;;;5058199;28;20478;-71
2021/04/24 11:39:00;;;;;;;4.13;3.30;;;12.60;77.70;;;;;;5041574;28;20472;-71
2021/04/24 11:41:37;;;;;;;3.80;3.23;;;12.70;76.90;;;;;;5049167;28;20424;-71
2021/04/24 11:44:18;;;;;;;4.20;3.70;;;12.80;77.00;;;;;;5050209;28;20424;-70
2021/04/24 11:46:46;;;;;;;4.60;4.13;;;13.00;77.30;;;;;;5063315;28;20777;-71
2021/04/24 11:49:27;;;;;;;4.83;3.50;;;12.80;75.70;;;;;;5053546;28;20460;-70
2021/04/24 11:52:07;;;;;;;3.83;3.43;;;12.80;76.70;;;;;;5053622;28;20487;-71
2021/04/24 11:54:43;;;;;;;4.57;4.17;;;13.00;76.40;;;;;;5054932;28;20397;-69
2021/04/24 11:57:10;;;;;;;5.00;3.80;;;13.10;76.10;;;;;;5059007;28;20409;-70
2021/04/24 11:59:38;;;;;;;5.57;3.90;;;13.20;75.50;;;;;;5062991;28;20476;-70
2021/04/24 12:02:21;;;;;;;5.20;3.77;;;13.20;74.30;;;;;;5063972;28;20412;-70
2021/04/24 12:04:55;;;;;;;4.17;3.23;;;13.10;73.00;;;;;;5060374;28;20498;-70
2021/04/24 12:07:21;;;;;;;6.50;3.97;;;12.90;74.00;;;;;;5058208;28;20428;-71
2021/04/24 12:10:03;;;;;;;3.50;3.20;;;12.90;73.60;;;;;;5064325;28;20448;-70
2021/04/24 12:12:33;;;;;;;4.00;3.60;;;13.00;73.60;;;;;;5078071;28;20481;-71
2021/04/24 12:15:03;;;;;;;7.50;3.80;;;12.90;73.00;;;;;;5076782;28;20773;-71
2021/04/24 12:17:29;;;;;;;4.90;3.70;;;12.80;73.60;;;;;;5077781;28;20404;-72
2021/04/24 12:19:54;;;;;;;5.10;4.17;;;12.80;73.10;;;;;;5075904;28;20482;-71
2021/04/24 12:22:21;;;;;;;6.20;3.73;;;13.00;73.90;;;;;;5077890;28;20177;-71
2021/04/24 12:25:05;;;;;;;8.53;4.80;;;13.30;73.80;;;;;;5077042;28;20622;-70
2021/04/24 12:27:34;;;;;;;5.73;4.03;;;13.30;72.50;;;;;;5074928;28;20422;-71
2021/04/24 12:30:03;;;;;;;4.77;4.27;;;13.10;72.30;;;;;;5076251;28;20446;-71
2021/04/24 12:32:38;;;;;;;4.37;3.90;;;13.00;72.80;;;;;;5076490;28;20455;-71
2021/04/24 12:35:11;;;;;;;5.23;4.47;;;13.00;72.90;;;;;;5074874;28;20430;-71
2021/04/24 12:37:38;;;;;;;6.33;4.13;;;13.20;72.80;;;;;;5074161;28;20447;-71
2021/04/24 12:40:24;;;;;;;6.50;4.43;;;13.10;73.10;;;;;;5075973;28;20958;-71
2021/04/24 12:42:49;;;;;;;5.00;4.27;;;13.20;74.20;;;;;;5075622;28;20419;-71
2021/04/24 12:45:21;;;;;;;5.63;4.50;;;13.40;74.40;;;;;;5075667;28;20969;-71
2021/04/24 12:47:48;;;;;;;5.10;4.43;;;13.60;74.00;;;;;;5074004;28;20167;-71
2021/04/24 12:50:25;;;;;;;5.07;4.40;;;13.80;73.80;;;;;;5075271;28;20761;-71
2021/04/24 12:52:59;;;;;;;5.90;4.50;;;14.00;73.40;;;;;;5075519;28;20546;-71
2021/04/24 12:55:33;;;;;;;6.87;5.30;;;14.10;72.70;;;;;;5076045;28;20411;-70
2021/04/24 12:58:12;;;;;;;7.90;5.10;;;14.30;72.20;;;;;;5075371;28;20400;-71